createdAt,value
2019-05-11T00:00:39.429Z,97.18
2019-05-11T00:01:39.413Z,97.28
2019-05-11T00:02:39.415Z,97.08
2019-05-11T00:03:39.435Z,97.69
2019-05-11T00:04:39.379Z,97.60
2019-05-11T00:05:39.373Z,97.08
2019-05-11T00:06:39.357Z,97.28
2019-05-11T00:07:39.388Z,96.81
2019-05-11T00:08:39.336Z,96.61
2019-05-11T00:09:39.326Z,96.61
2019-05-11T00:10:39.316Z,96.61
2019-05-11T00:11:39.330Z,96.71
2019-05-11T00:12:39.292Z,96.61
2019-05-11T00:13:39.283Z,96.71
2019-05-11T00:14:39.272Z,96.41
2019-05-11T00:15:39.263Z,96.71
2019-05-11T00:16:39.248Z,96.50
2019-05-11T00:17:39.239Z,96.61
2019-05-11T00:18:39.229Z,96.34
2019-05-11T00:19:39.217Z,96.45
2019-05-11T00:20:39.209Z,96.03
2019-05-11T00:21:39.199Z,96.86
2019-05-11T00:22:39.186Z,96.55
2019-05-11T00:23:39.180Z,96.55
2019-05-11T00:24:39.173Z,96.45
2019-05-11T00:25:39.152Z,96.03
2019-05-11T00:26:39.142Z,96.92
2019-05-11T00:27:39.131Z,97.17
2019-05-11T00:28:39.120Z,96.96
2019-05-11T00:29:39.160Z,97.06
2019-05-11T00:30:39.099Z,96.96
2019-05-11T00:31:39.091Z,97.17
2019-05-11T00:32:39.077Z,97.99
2019-05-11T00:33:39.067Z,97.68
2019-05-11T00:34:39.056Z,97.33
2019-05-11T00:35:39.047Z,97.48
2019-05-11T00:36:39.040Z,97.33
2019-05-11T00:37:39.024Z,97.64
2019-05-11T00:38:39.012Z,97.43
2019-05-11T00:39:39.002Z,97.48
2019-05-11T00:40:38.991Z,97.33
2019-05-11T00:41:38.981Z,97.58
2019-05-11T00:42:38.972Z,97.23
2019-05-11T00:43:38.961Z,97.43
2019-05-11T00:44:38.949Z,97.23
2019-05-11T00:45:38.937Z,97.23
2019-05-11T00:46:38.928Z,97.17
2019-05-11T00:47:38.915Z,97.02
2019-05-11T00:48:38.907Z,97.02
2019-05-11T00:49:38.895Z,97.23
2019-05-11T00:50:40.065Z,97.64
2019-05-11T00:51:38.873Z,97.13
2019-05-11T00:52:38.866Z,97.33
2019-05-11T00:53:38.851Z,97.43
2019-05-11T00:54:38.841Z,97.43
2019-05-11T00:55:38.831Z,97.64
2019-05-11T00:56:38.820Z,97.53
2019-05-11T00:57:38.808Z,97.69
2019-05-11T00:58:38.802Z,97.80
2019-05-11T00:59:38.787Z,97.60
2019-05-11T01:00:38.789Z,97.49
2019-05-11T01:01:38.765Z,97.18
2019-05-11T01:02:38.755Z,97.64
2019-05-11T01:03:38.745Z,97.18
2019-05-11T01:04:38.734Z,97.02
2019-05-11T01:05:38.721Z,96.67
2019-05-11T01:06:38.714Z,96.67
2019-05-11T01:07:38.701Z,97.90
2019-05-11T01:08:38.689Z,97.60
2019-05-11T01:09:38.678Z,97.39
2019-05-11T01:10:42.815Z,97.13
2019-05-11T01:11:38.659Z,97.60
2019-05-11T01:12:38.649Z,97.39
2019-05-11T01:13:38.636Z,97.60
2019-05-11T01:14:38.624Z,97.39
2019-05-11T01:15:38.613Z,97.39
2019-05-11T01:16:38.605Z,97.39
2019-05-11T01:17:38.608Z,97.18
2019-05-11T01:18:38.581Z,97.43
2019-05-11T01:19:38.571Z,97.85
2019-05-11T01:20:38.564Z,97.64
2019-05-11T01:21:38.549Z,97.95
2019-05-11T01:22:38.548Z,97.43
2019-05-11T01:23:38.527Z,96.96
2019-05-11T01:24:38.518Z,97.13
2019-05-11T01:25:38.507Z,97.17
2019-05-11T01:26:38.499Z,97.48
2019-05-11T01:27:38.498Z,97.48
2019-05-11T01:28:38.475Z,97.48
2019-05-11T01:29:38.467Z,97.38
2019-05-11T01:30:38.948Z,97.48
2019-05-11T01:31:38.455Z,97.58
2019-05-11T01:32:38.431Z,97.63
2019-05-11T01:33:38.423Z,98.03
2019-05-11T01:34:38.454Z,97.83
2019-05-11T01:35:38.430Z,97.83
2019-05-11T01:36:38.391Z,97.52
2019-05-11T01:37:38.377Z,97.52
2019-05-11T01:38:38.365Z,97.83
2019-05-11T01:39:38.377Z,97.63
2019-05-11T01:40:38.346Z,97.47
2019-05-11T01:41:38.337Z,97.56
2019-05-11T01:42:38.323Z,97.36
2019-05-11T01:43:38.313Z,97.36
2019-05-11T01:44:38.303Z,97.61
2019-05-11T01:45:38.291Z,97.41
2019-05-11T01:46:38.280Z,97.61
2019-05-11T01:47:38.270Z,97.72
2019-05-11T01:48:38.260Z,97.82
2019-05-11T01:49:38.249Z,98.02
2019-05-11T01:50:38.244Z,98.23
2019-05-11T01:51:38.226Z,97.92
2019-05-11T01:52:38.219Z,98.54
2019-05-11T01:53:38.205Z,98.85
2019-05-11T01:54:38.193Z,98.79
2019-05-11T01:55:38.184Z,98.85
2019-05-11T01:56:38.173Z,98.75
2019-05-11T01:57:38.166Z,99.21
2019-05-11T01:58:38.151Z,99.31
2019-05-11T01:59:38.142Z,99.41
2019-05-11T02:00:38.130Z,99.52
2019-05-11T02:01:38.119Z,99.35
2019-05-11T02:02:38.115Z,98.94
2019-05-11T02:03:38.101Z,99.10
2019-05-11T02:04:38.087Z,99.05
2019-05-11T02:05:38.077Z,99.31
2019-05-11T02:06:38.065Z,98.90
2019-05-11T02:07:38.056Z,99.35
2019-05-11T02:08:38.044Z,99.25
2019-05-11T02:09:38.032Z,99.35
2019-05-11T02:10:38.027Z,99.25
2019-05-11T02:11:38.013Z,99.46
2019-05-11T02:12:38.003Z,99.56
2019-05-11T02:13:37.990Z,99.77
2019-05-11T02:14:37.982Z,99.46
2019-05-11T02:15:37.971Z,99.66
2019-05-11T02:16:37.963Z,99.56
2019-05-11T02:17:37.950Z,99.66
2019-05-11T02:18:37.936Z,99.46
2019-05-11T02:19:37.925Z,99.77
2019-05-11T02:20:37.915Z,99.66
2019-05-11T02:21:37.903Z,99.77
2019-05-11T02:22:37.894Z,99.82
2019-05-11T02:23:37.883Z,99.82
2019-05-11T02:24:37.875Z,99.71
2019-05-11T02:25:37.860Z,99.92
2019-05-11T02:26:37.853Z,99.77
2019-05-11T02:27:37.843Z,99.99
2019-05-11T02:28:37.829Z,99.99
2019-05-11T02:29:41.191Z,99.99
2019-05-11T02:30:37.823Z,99.71
2019-05-11T02:31:37.798Z,99.92
2019-05-11T02:32:37.789Z,99.99
2019-05-11T02:33:37.783Z,99.99
2019-05-11T02:34:37.767Z,99.99
2019-05-11T02:35:37.757Z,99.99
2019-05-11T02:36:37.747Z,99.92
2019-05-11T02:37:37.738Z,99.99
2019-05-11T02:38:37.727Z,99.99
2019-05-11T02:39:37.713Z,99.71
2019-05-11T02:40:37.702Z,99.99
2019-05-11T02:41:38.309Z,99.87
2019-05-11T02:42:37.682Z,99.71
2019-05-11T02:43:37.670Z,99.99
2019-05-11T02:44:37.659Z,99.82
2019-05-11T02:45:37.650Z,99.99
2019-05-11T02:46:37.706Z,99.99
2019-05-11T02:47:37.629Z,99.99
2019-05-11T02:48:37.615Z,99.99
2019-05-11T02:49:37.608Z,99.92
2019-05-11T02:50:37.615Z,99.99
2019-05-11T02:51:37.585Z,99.92
2019-05-11T02:52:37.578Z,99.92
2019-05-11T02:53:37.563Z,99.92
2019-05-11T02:54:37.552Z,99.71
2019-05-11T02:55:37.546Z,99.99
2019-05-11T02:56:37.532Z,99.99
2019-05-11T02:57:37.538Z,99.99
2019-05-11T02:58:37.512Z,99.99
2019-05-11T02:59:37.501Z,99.99
2019-05-11T03:00:37.488Z,99.99
2019-05-11T03:01:37.478Z,99.99
2019-05-11T03:02:37.466Z,99.99
2019-05-11T03:03:37.457Z,99.99
2019-05-11T03:04:37.451Z,99.99
2019-05-11T03:05:37.436Z,99.99
2019-05-11T03:06:37.452Z,99.96
2019-05-11T03:07:37.417Z,99.99
2019-05-11T03:08:37.405Z,99.99
2019-05-11T03:09:37.394Z,99.99
2019-05-11T03:10:37.385Z,99.99
2019-05-11T03:11:54.190Z,99.76
2019-05-11T03:12:38.361Z,99.99
2019-05-11T03:13:37.361Z,99.99
2019-05-11T03:14:37.343Z,99.99
2019-05-11T03:15:37.330Z,99.99
2019-05-11T03:16:37.318Z,99.99
2019-05-11T03:17:37.312Z,99.99
2019-05-11T03:18:37.307Z,99.99
2019-05-11T03:19:37.286Z,99.99
2019-05-11T03:20:37.277Z,99.99
2019-05-11T03:21:37.274Z,99.99
2019-05-11T03:22:37.255Z,99.99
2019-05-11T03:23:37.243Z,99.99
2019-05-11T03:24:37.233Z,99.96
2019-05-11T03:25:37.224Z,99.99
2019-05-11T03:26:37.212Z,99.99
2019-05-11T03:27:37.206Z,99.99
2019-05-11T03:28:37.190Z,99.99
2019-05-11T03:29:37.182Z,99.96
2019-05-11T03:30:37.182Z,99.99
2019-05-11T03:31:37.159Z,99.99
2019-05-11T03:32:37.149Z,99.96
2019-05-11T03:33:37.139Z,99.99
2019-05-11T03:34:37.137Z,99.99
2019-05-11T03:35:37.120Z,99.99
2019-05-11T03:36:37.108Z,99.99
2019-05-11T03:37:37.092Z,99.99
2019-05-11T03:38:37.085Z,99.99
2019-05-11T03:39:37.078Z,99.96
2019-05-11T03:40:37.062Z,99.96
2019-05-11T03:41:37.051Z,99.96
2019-05-11T03:42:37.042Z,99.99
2019-05-11T03:43:37.031Z,99.99
2019-05-11T03:44:37.020Z,99.99
2019-05-11T03:45:37.009Z,99.99
2019-05-11T03:46:36.996Z,99.99
2019-05-11T03:47:36.986Z,99.99
2019-05-11T03:48:36.975Z,99.99
2019-05-11T03:49:36.965Z,99.99
2019-05-11T03:50:36.954Z,99.99
2019-05-11T03:51:36.975Z,99.99
2019-05-11T03:52:36.935Z,99.99
2019-05-11T03:53:36.920Z,99.99
2019-05-11T03:54:36.926Z,99.99
2019-05-11T03:55:36.901Z,99.99
2019-05-11T03:56:36.888Z,99.99
2019-05-11T03:57:36.879Z,99.99
2019-05-11T03:58:36.869Z,99.99
2019-05-11T03:59:36.857Z,99.99
2019-05-11T04:00:36.848Z,99.99
2019-05-11T04:01:36.841Z,99.99
2019-05-11T04:02:36.830Z,99.99
2019-05-11T04:03:36.812Z,99.99
2019-05-11T04:04:36.815Z,99.99
2019-05-11T04:05:36.803Z,99.99
2019-05-11T04:06:36.783Z,99.99
2019-05-11T04:07:36.773Z,99.70
2019-05-11T04:08:36.760Z,99.99
2019-05-11T04:09:36.752Z,99.99
2019-05-11T04:10:36.739Z,99.44
2019-05-11T04:11:36.753Z,99.76
2019-05-11T04:12:36.717Z,98.62
2019-05-11T04:13:36.707Z,98.72
2019-05-11T04:14:36.695Z,99.14
2019-05-11T04:15:36.684Z,98.62
2019-05-11T04:16:36.681Z,98.62
2019-05-11T04:17:36.663Z,98.00
2019-05-11T04:18:36.656Z,97.96
2019-05-11T04:19:36.640Z,97.80
2019-05-11T04:20:36.631Z,97.44
2019-05-11T04:21:36.624Z,97.24
2019-05-11T04:22:36.610Z,97.55
2019-05-11T04:23:36.597Z,96.78
2019-05-11T04:24:36.591Z,96.83
2019-05-11T04:25:36.578Z,96.37
2019-05-11T04:26:36.567Z,96.68
2019-05-11T04:27:36.555Z,96.27
2019-05-11T04:28:36.544Z,96.27
2019-05-11T04:29:36.534Z,95.81
2019-05-11T04:30:36.524Z,96.02
2019-05-11T04:31:36.513Z,94.99
2019-05-11T04:32:36.503Z,94.74
2019-05-11T04:33:36.491Z,94.43
2019-05-11T04:34:36.479Z,94.84
2019-05-11T04:35:36.473Z,94.18
2019-05-11T04:36:36.460Z,92.85
2019-05-11T04:37:36.464Z,92.23
2019-05-11T04:38:36.437Z,92.13
2019-05-11T04:39:36.425Z,92.08
2019-05-11T04:40:36.425Z,92.08
2019-05-11T04:41:36.409Z,92.19
2019-05-11T04:42:53.293Z,92.35
2019-05-11T04:43:37.383Z,92.08
2019-05-11T04:44:36.375Z,92.40
2019-05-11T04:45:36.362Z,91.53
2019-05-11T04:46:36.360Z,91.33
2019-05-11T04:47:36.452Z,90.71
2019-05-11T04:48:36.330Z,90.50
2019-05-11T04:49:36.318Z,90.65
2019-05-11T04:50:36.308Z,91.16
2019-05-11T04:51:36.299Z,90.85
2019-05-11T04:52:36.287Z,91.47
2019-05-11T04:53:36.278Z,90.55
2019-05-11T04:54:36.271Z,91.27
2019-05-11T04:55:36.254Z,91.22
2019-05-11T04:56:36.244Z,91.22
2019-05-11T04:57:36.233Z,91.12
2019-05-11T04:58:36.223Z,91.22
2019-05-11T04:59:36.215Z,90.77
2019-05-11T05:00:36.199Z,90.40
2019-05-11T05:01:36.194Z,91.08
2019-05-11T05:02:36.177Z,91.28
2019-05-11T05:03:40.746Z,90.56
2019-05-11T05:04:37.156Z,89.75
2019-05-11T05:05:36.152Z,89.84
2019-05-11T05:06:38.840Z,89.81
2019-05-11T05:07:36.128Z,89.70
2019-05-11T05:08:36.117Z,89.15
2019-05-11T05:09:42.404Z,89.04
2019-05-11T05:10:37.094Z,88.94
2019-05-11T05:11:36.595Z,88.64
2019-05-11T05:12:36.071Z,88.43
2019-05-11T05:13:36.060Z,88.90
2019-05-11T05:14:36.049Z,88.53
2019-05-11T05:15:36.039Z,88.49
2019-05-11T05:16:36.029Z,88.29
2019-05-11T05:17:36.017Z,87.67
2019-05-11T05:18:36.012Z,88.45
2019-05-11T05:19:35.996Z,88.35
2019-05-11T05:20:35.986Z,88.35
2019-05-11T05:21:35.980Z,87.63
2019-05-11T05:22:35.965Z,87.12
2019-05-11T05:23:35.957Z,86.88
2019-05-11T05:24:35.948Z,86.16
2019-05-11T05:25:35.936Z,86.16
2019-05-11T05:26:35.920Z,85.50
2019-05-11T05:27:35.911Z,85.40
2019-05-11T05:28:35.899Z,85.77
2019-05-11T05:29:35.895Z,85.06
2019-05-11T05:30:35.882Z,85.06
2019-05-11T05:31:35.866Z,83.52
2019-05-11T05:32:35.876Z,83.28
2019-05-11T05:33:35.858Z,83.66
2019-05-11T05:34:35.834Z,82.60
2019-05-11T05:35:35.827Z,83.25
2019-05-11T05:36:35.814Z,82.84
2019-05-11T05:37:35.800Z,83.05
2019-05-11T05:38:35.789Z,83.01
2019-05-11T05:39:35.778Z,83.07
2019-05-11T05:40:35.769Z,83.28
2019-05-11T05:41:35.758Z,83.07
2019-05-11T05:42:35.746Z,82.22
2019-05-11T05:43:35.735Z,81.30
2019-05-11T05:44:35.725Z,81.98
2019-05-11T05:45:35.717Z,82.49
2019-05-11T05:46:35.703Z,80.96
2019-05-11T05:47:35.691Z,80.34
2019-05-11T05:48:35.683Z,80.44
2019-05-11T05:49:35.675Z,80.30
2019-05-11T05:50:35.659Z,80.44
2019-05-11T05:51:35.648Z,78.77
2019-05-11T05:52:35.638Z,80.30
2019-05-11T05:53:35.629Z,78.37
2019-05-11T05:54:35.617Z,78.47
2019-05-11T05:55:35.605Z,78.27
2019-05-11T05:56:35.596Z,77.31
2019-05-11T05:57:35.584Z,77.11
2019-05-11T05:58:35.587Z,76.70
2019-05-11T05:59:35.562Z,76.50
2019-05-11T06:00:35.554Z,76.39
2019-05-11T06:01:35.542Z,77.31
2019-05-11T06:02:35.534Z,77.41
2019-05-11T06:03:35.521Z,77.48
2019-05-11T06:04:35.509Z,77.27
2019-05-11T06:05:35.504Z,76.05
2019-05-11T06:06:35.488Z,75.71
2019-05-11T06:07:35.477Z,75.92
2019-05-11T06:08:35.470Z,74.55
2019-05-11T06:09:35.454Z,74.01
2019-05-11T06:10:35.443Z,74.99
2019-05-11T06:11:35.435Z,73.94
2019-05-11T06:12:35.423Z,72.14
2019-05-11T06:13:45.377Z,70.65
2019-05-11T06:14:36.406Z,71.36
2019-05-11T06:15:35.393Z,70.96
2019-05-11T06:16:35.380Z,72.08
2019-05-11T06:17:35.378Z,72.48
2019-05-11T06:18:35.358Z,71.36
2019-05-11T06:19:35.347Z,70.92
2019-05-11T06:20:35.338Z,70.35
2019-05-11T06:21:35.327Z,68.96
2019-05-11T06:22:35.316Z,66.06
2019-05-11T06:23:35.305Z,66.30
2019-05-11T06:24:35.294Z,66.09
2019-05-11T06:25:35.289Z,65.08
2019-05-11T06:26:35.274Z,66.09
2019-05-11T06:27:35.261Z,64.00
2019-05-11T06:28:35.261Z,66.57
2019-05-11T06:29:35.242Z,63.56
2019-05-11T06:30:35.233Z,64.37
2019-05-11T06:31:35.232Z,63.89
2019-05-11T06:32:35.213Z,63.21
2019-05-11T06:33:35.198Z,64.64
2019-05-11T06:34:35.187Z,64.81
2019-05-11T06:35:35.177Z,64.58
2019-05-11T06:36:35.163Z,61.33
2019-05-11T06:37:35.152Z,62.37
2019-05-11T06:38:35.146Z,63.73
2019-05-11T06:39:35.134Z,62.11
2019-05-11T06:40:35.119Z,60.57
2019-05-11T06:41:35.109Z,60.63
2019-05-11T06:42:35.099Z,59.22
2019-05-11T06:43:35.088Z,58.00
2019-05-11T06:44:35.076Z,58.69
2019-05-11T06:45:35.073Z,58.81
2019-05-11T06:46:35.378Z,58.41
2019-05-11T06:47:35.048Z,60.41
2019-05-11T06:48:35.032Z,59.59
2019-05-11T06:49:35.022Z,58.25
2019-05-11T06:50:35.012Z,57.52
2019-05-11T06:51:35.015Z,57.89
2019-05-11T06:52:34.991Z,55.77
2019-05-11T06:53:34.985Z,56.18
2019-05-11T06:54:34.968Z,55.27
2019-05-11T06:55:34.957Z,54.99
2019-05-11T06:56:34.947Z,54.58
2019-05-11T06:57:34.940Z,55.69
2019-05-11T06:58:34.926Z,55.24
2019-05-11T06:59:34.930Z,54.94
2019-05-11T07:00:34.903Z,53.75
2019-05-11T07:01:34.892Z,54.94
2019-05-11T07:02:34.881Z,54.51
2019-05-11T07:03:34.871Z,55.85
2019-05-11T07:04:34.859Z,53.02
2019-05-11T07:05:34.853Z,52.92
2019-05-11T07:06:34.838Z,53.32
2019-05-11T07:07:47.178Z,53.63
2019-05-11T07:08:35.815Z,53.45
2019-05-11T07:09:34.810Z,55.14
2019-05-11T07:10:34.795Z,52.94
2019-05-11T07:11:34.785Z,54.66
2019-05-11T07:12:34.773Z,53.22
2019-05-11T07:13:34.856Z,53.70
2019-05-11T07:14:34.752Z,53.65
2019-05-11T07:15:34.741Z,53.45
2019-05-11T07:16:34.742Z,52.99
2019-05-11T07:17:34.721Z,54.74
2019-05-11T07:18:34.714Z,57.07
2019-05-11T07:19:34.700Z,53.90
2019-05-11T07:20:49.455Z,56.33
2019-05-11T07:21:35.680Z,53.19
2019-05-11T07:22:34.688Z,53.75
2019-05-11T07:23:34.675Z,54.44
2019-05-11T07:24:34.646Z,53.30
2019-05-11T07:25:34.638Z,55.29
2019-05-11T07:26:34.627Z,51.93
2019-05-11T07:27:34.614Z,51.71
2019-05-11T07:28:34.603Z,53.40
2019-05-11T07:29:34.598Z,53.47
2019-05-11T07:30:34.582Z,52.16
2019-05-11T07:31:34.574Z,50.32
2019-05-11T07:32:34.562Z,53.55
2019-05-11T07:33:34.552Z,54.96
2019-05-11T07:34:34.539Z,50.09
2019-05-11T07:35:34.528Z,50.29
2019-05-11T07:36:34.520Z,52.03
2019-05-11T07:37:34.506Z,51.96
2019-05-11T07:38:34.497Z,56.56
2019-05-11T07:39:34.509Z,53.40
2019-05-11T07:40:34.483Z,51.05
2019-05-11T07:41:34.505Z,52.14
2019-05-11T07:42:34.461Z,50.60
2019-05-11T07:43:34.455Z,49.79
2019-05-11T07:44:38.497Z,47.90
2019-05-11T07:45:35.420Z,48.91
2019-05-11T07:46:34.428Z,50.57
2019-05-11T07:47:34.403Z,51.43
2019-05-11T07:48:34.390Z,53.78
2019-05-11T07:49:34.381Z,51.83
2019-05-11T07:50:34.369Z,50.92
2019-05-11T07:51:34.367Z,52.92
2019-05-11T07:52:34.354Z,50.67
2019-05-11T07:53:34.339Z,50.19
2019-05-11T07:54:34.324Z,52.82
2019-05-11T07:55:34.314Z,51.03
2019-05-11T07:56:34.306Z,52.56
2019-05-11T07:57:34.293Z,51.40
2019-05-11T07:58:34.282Z,50.78
2019-05-11T07:59:34.271Z,50.37
2019-05-11T08:00:36.464Z,50.32
2019-05-11T08:01:35.251Z,46.59
2019-05-11T08:02:34.243Z,49.33
2019-05-11T08:03:34.230Z,49.13
2019-05-11T08:04:34.218Z,48.71
2019-05-11T08:05:34.209Z,52.76
2019-05-11T08:06:34.198Z,50.42
2019-05-11T08:07:34.189Z,50.52
2019-05-11T08:08:34.177Z,50.02
2019-05-11T08:09:34.181Z,49.64
2019-05-11T08:10:34.173Z,49.36
2019-05-11T08:11:34.153Z,51.28
2019-05-11T08:12:34.139Z,51.40
2019-05-11T08:13:34.128Z,51.30
2019-05-11T08:14:34.114Z,50.27
2019-05-11T08:15:34.103Z,49.08
2019-05-11T08:16:34.097Z,50.72
2019-05-11T08:17:34.084Z,51.98
2019-05-11T08:18:34.073Z,50.50
2019-05-11T08:19:34.064Z,48.94
2019-05-11T08:20:34.054Z,45.98
2019-05-11T08:21:34.045Z,45.94
2019-05-11T08:22:34.033Z,44.83
2019-05-11T08:23:34.023Z,45.94
2019-05-11T08:24:34.019Z,45.03
2019-05-11T08:25:34.003Z,44.60
2019-05-11T08:26:33.994Z,43.10
2019-05-11T08:27:33.982Z,44.12
2019-05-11T08:28:33.985Z,44.77
2019-05-11T08:29:33.971Z,46.36
2019-05-11T08:30:33.952Z,43.28
2019-05-11T08:31:33.939Z,42.88
2019-05-11T08:32:33.934Z,40.67
2019-05-11T08:33:33.922Z,43.18
2019-05-11T08:34:33.922Z,42.52
2019-05-11T08:35:33.900Z,43.54
2019-05-11T08:36:33.894Z,47.31
2019-05-11T08:37:33.887Z,45.94
2019-05-11T08:38:33.871Z,47.17
2019-05-11T08:39:33.860Z,45.97
2019-05-11T08:40:33.849Z,46.06
2019-05-11T08:41:33.840Z,47.22
2019-05-11T08:42:33.826Z,49.44
2019-05-11T08:43:33.820Z,45.30
2019-05-11T08:44:33.807Z,46.94
2019-05-11T08:45:33.795Z,46.94
2019-05-11T08:46:33.788Z,47.34
2019-05-11T08:47:33.771Z,49.16
2019-05-11T08:48:33.764Z,48.43
2019-05-11T08:49:33.754Z,49.26
2019-05-11T08:50:33.747Z,46.23
2019-05-11T08:51:34.636Z,46.58
2019-05-11T08:52:33.722Z,47.69
2019-05-11T08:53:33.709Z,49.30
2019-05-11T08:54:33.699Z,47.06
2019-05-11T08:55:33.689Z,47.87
2019-05-11T08:56:33.678Z,48.28
2019-05-11T08:57:33.670Z,46.47
2019-05-11T08:58:33.656Z,45.62
2019-05-11T08:59:33.647Z,46.87
2019-05-11T09:00:33.637Z,46.26
2019-05-11T09:01:33.626Z,47.66
2019-05-11T09:02:33.645Z,46.36
2019-05-11T09:03:33.608Z,46.18
2019-05-11T09:04:33.593Z,43.00
2019-05-11T09:05:33.587Z,44.31
2019-05-11T09:06:33.574Z,42.74
2019-05-11T09:07:33.567Z,44.83
2019-05-11T09:08:33.552Z,43.08
2019-05-11T09:09:33.547Z,42.55
2019-05-11T09:10:36.843Z,44.69
2019-05-11T09:11:34.519Z,45.12
2019-05-11T09:12:33.511Z,46.36
2019-05-11T09:13:33.504Z,44.85
2019-05-11T09:14:33.493Z,43.88
2019-05-11T09:15:38.287Z,45.82
2019-05-11T09:16:34.466Z,45.38
2019-05-11T09:17:33.456Z,46.79
2019-05-11T09:18:33.446Z,45.76
2019-05-11T09:19:33.447Z,46.81
2019-05-11T09:20:33.424Z,46.78
2019-05-11T09:21:33.425Z,46.98
2019-05-11T09:22:34.139Z,48.98
2019-05-11T09:23:37.503Z,49.08
2019-05-11T09:24:34.383Z,48.78
2019-05-11T09:25:33.374Z,46.60
2019-05-11T09:26:33.363Z,49.35
2019-05-11T09:27:33.354Z,47.03
2019-05-11T09:28:33.339Z,48.42
2019-05-11T09:29:33.331Z,47.41
2019-05-11T09:30:33.316Z,48.02
2019-05-11T09:31:33.310Z,47.43
2019-05-11T09:32:33.296Z,49.15
2019-05-11T09:33:33.285Z,50.14
2019-05-11T09:34:33.277Z,49.30
2019-05-11T09:35:46.695Z,51.81
2019-05-11T09:36:34.276Z,46.86
2019-05-11T09:37:33.242Z,48.58
2019-05-11T09:38:33.231Z,48.25
2019-05-11T09:39:33.223Z,47.22
2019-05-11T09:40:33.212Z,44.92
2019-05-11T09:41:33.201Z,46.36
2019-05-11T09:42:33.187Z,47.34
2019-05-11T09:43:33.177Z,46.94
2019-05-11T09:44:33.169Z,46.11
2019-05-11T09:45:44.630Z,50.02
2019-05-11T09:46:34.144Z,43.26
2019-05-11T09:47:33.135Z,43.89
2019-05-11T09:48:33.129Z,43.20
2019-05-11T09:49:43.824Z,44.34
2019-05-11T09:50:34.103Z,44.92
2019-05-11T09:51:33.092Z,46.41
2019-05-11T09:52:33.081Z,43.44
2019-05-11T09:53:33.074Z,44.35
2019-05-11T09:54:33.062Z,45.03
2019-05-11T09:55:33.387Z,44.21
2019-05-11T09:56:33.081Z,42.40
2019-05-11T09:57:33.035Z,42.10
2019-05-11T09:58:33.017Z,43.32
2019-05-11T09:59:33.011Z,44.63
2019-05-11T10:00:32.994Z,45.54
2019-05-11T10:01:32.984Z,44.31
2019-05-11T10:02:32.980Z,43.60
2019-05-11T10:03:32.962Z,44.59
2019-05-11T10:04:32.953Z,48.03
2019-05-11T10:05:32.943Z,43.18
2019-05-11T10:06:32.933Z,46.00
2019-05-11T10:07:32.921Z,46.80
2019-05-11T10:08:32.909Z,45.90
2019-05-11T10:09:32.902Z,42.27
2019-05-11T10:10:32.886Z,45.84
2019-05-11T10:11:32.878Z,43.42
2019-05-11T10:12:32.866Z,46.09
2019-05-11T10:13:32.855Z,44.21
2019-05-11T10:14:32.846Z,45.02
2019-05-11T10:15:32.853Z,46.43
2019-05-11T10:16:32.830Z,45.10
2019-05-11T10:17:32.833Z,45.00
2019-05-11T10:18:32.808Z,45.48
2019-05-11T10:19:32.794Z,43.28
2019-05-11T10:20:32.787Z,45.00
2019-05-11T10:21:32.771Z,45.10
2019-05-11T10:22:32.767Z,47.09
2019-05-11T10:23:32.749Z,46.01
2019-05-11T10:24:32.744Z,46.41
2019-05-11T10:25:32.727Z,44.42
2019-05-11T10:26:32.715Z,45.02
2019-05-11T10:27:32.708Z,46.73
2019-05-11T10:28:32.694Z,46.92
2019-05-11T10:29:34.009Z,45.81
2019-05-11T10:30:32.677Z,46.23
2019-05-11T10:31:32.664Z,46.13
2019-05-11T10:32:32.652Z,46.33
2019-05-11T10:33:32.647Z,46.59
2019-05-11T10:34:32.629Z,44.78
2019-05-11T10:35:32.622Z,46.69
2019-05-11T10:36:32.614Z,44.57
2019-05-11T10:37:32.597Z,46.09
2019-05-11T10:38:32.590Z,47.12
2019-05-11T10:39:32.576Z,46.92
2019-05-11T10:40:32.568Z,46.01
2019-05-11T10:41:32.554Z,44.70
2019-05-11T10:42:32.544Z,44.51
2019-05-11T10:43:32.534Z,47.32
2019-05-11T10:44:32.523Z,45.93
2019-05-11T10:45:32.513Z,46.81
2019-05-11T10:46:32.505Z,45.22
2019-05-11T10:47:32.531Z,45.00
2019-05-11T10:48:32.501Z,46.41
2019-05-11T10:49:32.468Z,45.07
2019-05-11T10:50:32.465Z,44.95
2019-05-11T10:51:32.449Z,46.97
2019-05-11T10:52:32.436Z,44.85
2019-05-11T10:53:32.424Z,43.44
2019-05-11T10:54:32.418Z,46.25
2019-05-11T10:55:32.405Z,46.97
2019-05-11T10:56:32.394Z,47.45
2019-05-11T10:57:32.388Z,45.64
2019-05-11T10:58:32.372Z,45.76
2019-05-11T10:59:32.362Z,47.70
2019-05-11T11:00:32.350Z,45.18
2019-05-11T11:01:32.339Z,46.39
2019-05-11T11:02:32.332Z,46.39
2019-05-11T11:03:32.319Z,47.30
2019-05-11T11:04:32.308Z,45.12
2019-05-11T11:05:32.302Z,47.12
2019-05-11T11:06:32.286Z,46.71
2019-05-11T11:07:32.275Z,44.21
2019-05-11T11:08:32.265Z,46.89
2019-05-11T11:09:32.253Z,44.98
2019-05-11T11:10:32.270Z,45.78
2019-05-11T11:11:32.234Z,45.78
2019-05-11T11:12:32.221Z,47.17
2019-05-11T11:13:32.210Z,45.46
2019-05-11T11:14:32.204Z,44.25
2019-05-11T11:15:32.191Z,44.95
2019-05-11T11:16:39.237Z,47.17
2019-05-11T11:17:33.201Z,45.84
2019-05-11T11:18:32.158Z,46.04
2019-05-11T11:19:32.147Z,43.44
2019-05-11T11:20:32.139Z,44.65
2019-05-11T11:21:32.125Z,46.26
2019-05-11T11:22:39.813Z,44.95
2019-05-11T11:23:33.107Z,45.06
2019-05-11T11:24:32.096Z,46.26
2019-05-11T11:25:32.085Z,46.47
2019-05-11T11:26:32.076Z,46.57
2019-05-11T11:27:32.061Z,46.47
2019-05-11T11:28:32.052Z,44.98
2019-05-11T11:29:32.042Z,46.59
2019-05-11T11:30:32.033Z,46.11
2019-05-11T11:31:32.077Z,47.02
2019-05-11T11:32:32.015Z,46.21
2019-05-11T11:33:31.999Z,45.02
2019-05-11T11:34:31.991Z,46.03
2019-05-11T11:35:31.987Z,47.02
2019-05-11T11:36:31.966Z,50.04
2019-05-11T11:37:31.953Z,47.72
2019-05-11T11:38:31.945Z,46.92
2019-05-11T11:39:31.957Z,48.13
2019-05-11T11:40:31.921Z,47.14
2019-05-11T11:41:31.917Z,47.24
2019-05-11T11:42:31.906Z,47.67
2019-05-11T11:43:31.889Z,48.39
2019-05-11T11:44:31.932Z,46.48
2019-05-11T11:45:31.869Z,47.39
2019-05-11T11:46:31.858Z,47.49
2019-05-11T11:47:31.846Z,47.28
2019-05-11T11:48:31.834Z,48.39
2019-05-11T11:49:31.829Z,47.39
2019-05-11T11:50:31.844Z,47.79
2019-05-11T11:51:31.806Z,50.21
2019-05-11T11:52:31.793Z,48.19
2019-05-11T11:53:31.783Z,47.39
2019-05-11T11:54:31.778Z,47.19
2019-05-11T11:55:31.769Z,47.59
2019-05-11T11:56:31.753Z,48.19
2019-05-11T11:57:31.740Z,50.92
2019-05-11T11:58:31.737Z,51.03
2019-05-11T11:59:31.718Z,48.62
2019-05-11T12:00:31.705Z,49.13
2019-05-11T12:01:31.696Z,49.02
2019-05-11T12:02:31.686Z,49.93
2019-05-11T12:03:31.673Z,50.77
2019-05-11T12:04:31.662Z,50.97
2019-05-11T12:05:31.659Z,51.20
2019-05-11T12:06:31.638Z,51.20
2019-05-11T12:07:31.628Z,51.30
2019-05-11T12:08:31.617Z,51.90
2019-05-11T12:09:31.606Z,51.81
2019-05-11T12:10:31.596Z,51.40
2019-05-11T12:11:31.584Z,50.89
2019-05-11T12:12:31.574Z,50.18
2019-05-11T12:13:31.565Z,50.09
2019-05-11T12:14:31.551Z,52.92
2019-05-11T12:15:31.540Z,51.30
2019-05-11T12:16:31.528Z,51.40
2019-05-11T12:17:31.517Z,55.02
2019-05-11T12:18:31.514Z,54.99
2019-05-11T12:19:31.502Z,50.87
2019-05-11T12:20:31.485Z,52.28
2019-05-11T12:21:31.474Z,53.58
2019-05-11T12:22:31.465Z,54.38
2019-05-11T12:23:31.453Z,53.27
2019-05-11T12:24:31.446Z,52.76
2019-05-11T12:25:31.432Z,53.47
2019-05-11T12:26:31.421Z,52.16
2019-05-11T12:27:31.423Z,53.67
2019-05-11T12:28:31.399Z,51.45
2019-05-11T12:29:31.389Z,52.76
2019-05-11T12:30:31.381Z,52.36
2019-05-11T12:31:32.664Z,54.91
2019-05-11T12:32:31.357Z,55.65
2019-05-11T12:33:31.345Z,52.81
2019-05-11T12:34:31.335Z,51.90
2019-05-11T12:35:31.327Z,53.83
2019-05-11T12:36:31.348Z,54.03
2019-05-11T12:37:31.313Z,53.42
2019-05-11T12:38:31.322Z,53.52
2019-05-11T12:39:31.278Z,57.17
2019-05-11T12:40:31.300Z,57.98
2019-05-11T12:41:31.270Z,55.04
2019-05-11T12:42:31.276Z,53.83
2019-05-11T12:43:31.262Z,52.64
2019-05-11T12:44:31.220Z,53.52
2019-05-11T12:45:31.211Z,54.84
2019-05-11T12:46:31.203Z,55.24
2019-05-11T12:47:31.188Z,53.42
2019-05-11T12:48:31.185Z,56.36
2019-05-11T12:49:31.167Z,55.57
2019-05-11T12:50:31.156Z,54.76
2019-05-11T12:51:31.145Z,54.76
2019-05-11T12:52:31.140Z,57.32